Time;durP1;ratioP1;P1;durP2;ratioP2;P2;SDS_P1;SDS_P2;PMS_P1;PMS_P2;Temp;Humidity;BMP_temperature;BMP_pressure;BME280_temperature;BME280_humidity;BME280_pressure;Samples;Min_cycle;Max_cycle;Signal;HPM_P1;HPM_P2
2023/11/24 00:01:35;;;;;;;61.35;12.10;;;8.70;96.10;;;;;;4966375;29;20079;-52
2023/11/24 00:04:01;;;;;;;50.60;11.48;;;8.70;96.10;;;;;;4967877;29;20110;-51
2023/11/24 00:06:28;;;;;;;51.20;11.60;;;8.70;96.10;;;;;;4966983;28;20024;-52
2023/11/24 00:08:53;;;;;;;59.08;11.68;;;8.70;96.50;;;;;;4966791;29;20039;-51
2023/11/24 00:11:20;;;;;;;51.03;11.48;;;8.70;96.20;;;;;;4966211;29;20069;-52
2023/11/24 00:13:46;;;;;;;42.75;11.32;;;8.70;96.20;;;;;;4982649;28;20122;-52
2023/11/24 00:16:11;;;;;;;58.03;12.48;;;8.70;96.30;;;;;;4982825;28;20032;-52
2023/11/24 00:18:37;;;;;;;46.42;11.52;;;8.70;96.20;;;;;;4982854;28;20027;-51
2023/11/24 00:21:06;;;;;;;57.88;13.07;;;8.70;96.20;;;;;;4982527;28;20047;-52
2023/11/24 00:23:35;;;;;;;51.33;11.00;;;8.70;96.20;;;;;;4982468;28;20031;-52
2023/11/24 00:26:04;;;;;;;63.22;12.63;;;8.70;96.20;;;;;;4982575;28;20082;-52
2023/11/24 00:28:29;;;;;;;53.38;12.63;;;8.70;96.20;;;;;;4966492;28;20031;-52
2023/11/24 00:30:55;;;;;;;33.00;10.38;;;8.70;96.20;;;;;;4968129;28;20054;-51
2023/11/24 00:33:20;;;;;;;32.65;9.95;;;8.70;96.20;;;;;;4982504;28;20031;-51
2023/11/24 00:35:46;;;;;;;38.88;10.30;;;8.70;96.20;;;;;;4966288;29;20050;-51
2023/11/24 00:38:12;;;;;;;41.03;10.93;;;8.70;96.20;;;;;;4982171;28;20031;-50
2023/11/24 00:40:40;;;;;;;38.42;10.55;;;8.70;96.30;;;;;;4966355;29;20034;-52
2023/11/24 00:43:07;;;;;;;47.67;11.00;;;8.70;96.20;;;;;;4967532;28;20031;-52
2023/11/24 00:45:33;;;;;;;43.50;9.85;;;8.70;96.20;;;;;;4982400;28;20111;-51
2023/11/24 00:47:59;;;;;;;35.08;10.07;;;8.70;96.20;;;;;;4982124;28;20030;-51
2023/11/24 00:50:24;;;;;;;39.58;10.68;;;8.70;96.20;;;;;;4966512;29;20075;-51
2023/11/24 00:52:50;;;;;;;41.17;10.82;;;8.70;96.20;;;;;;4967693;29;20031;-52
2023/11/24 00:55:15;;;;;;;42.03;10.40;;;8.70;96.20;;;;;;4966429;28;20035;-51
2023/11/24 00:57:41;;;;;;;40.30;11.07;;;8.70;96.20;;;;;;4965869;29;20063;-52
2023/11/24 01:00:08;;;;;;;35.92;10.45;;;8.70;96.20;;;;;;4950063;29;20027;-52
2023/11/24 01:02:36;;;;;;;41.45;10.90;;;8.70;96.20;;;;;;4967490;28;20047;-51
2023/11/24 01:05:02;;;;;;;31.48;10.10;;;8.70;96.20;;;;;;4967208;28;20095;-51
2023/11/24 01:07:28;;;;;;;40.47;10.73;;;8.70;96.20;;;;;;4966036;29;20065;-51
2023/11/24 01:09:53;;;;;;;43.42;10.80;;;8.70;96.10;;;;;;4966191;29;20038;-51
2023/11/24 01:12:19;;;;;;;37.38;10.75;;;8.70;96.10;;;;;;4967357;29;20046;-52
2023/11/24 01:14:45;;;;;;;31.00;9.50;;;8.70;96.10;;;;;;4956598;29;20036;-51
2023/11/24 01:17:10;;;;;;;38.90;10.43;;;8.70;96.10;;;;;;4947965;29;20032;-51
2023/11/24 01:19:37;;;;;;;47.05;10.60;;;8.70;96.10;;;;;;4966288;29;20032;-51
2023/11/24 01:22:03;;;;;;;36.95;10.82;;;8.70;96.10;;;;;;4950255;29;20107;-51
2023/11/24 01:24:29;;;;;;;36.38;11.43;;;8.70;96.10;;;;;;4964019;28;20043;-51
2023/11/24 01:26:55;;;;;;;35.83;11.05;;;8.70;96.10;;;;;;4969410;28;20039;-52
2023/11/24 01:29:20;;;;;;;32.50;10.93;;;8.70;96.10;;;;;;4985665;28;20035;-51
2023/11/24 01:31:46;;;;;;;29.60;10.85;;;8.70;96.10;;;;;;4970190;28;20042;-51
2023/11/24 01:34:14;;;;;;;27.02;10.13;;;8.70;96.10;;;;;;4969203;28;20090;-52
2023/11/24 01:36:42;;;;;;;33.22;11.07;;;8.70;96.10;;;;;;4969025;28;20047;-52
2023/11/24 01:39:10;;;;;;;42.83;9.55;;;8.70;96.10;;;;;;4970422;28;20042;-51
2023/11/24 01:41:35;;;;;;;27.80;10.25;;;8.70;96.00;;;;;;4969923;29;20057;-52
2023/11/24 01:44:02;;;;;;;29.20;10.00;;;8.70;96.00;;;;;;4985054;28;20051;-52
2023/11/24 01:46:30;;;;;;;27.52;11.07;;;8.70;96.00;;;;;;4970054;28;20030;-51
2023/11/24 01:48:56;;;;;;;30.35;10.32;;;8.70;96.00;;;;;;4984891;28;20043;-51
2023/11/24 01:51:22;;;;;;;33.00;10.77;;;8.70;96.00;;;;;;4984579;28;20036;-52
2023/11/24 01:53:48;;;;;;;26.55;10.63;;;8.70;95.90;;;;;;4968921;29;20128;-52
2023/11/24 01:56:14;;;;;;;30.10;10.63;;;8.70;95.90;;;;;;4968767;28;20439;-52
2023/11/24 01:58:39;;;;;;;30.55;9.63;;;8.70;95.80;;;;;;4970077;29;20091;-51
2023/11/24 02:01:05;;;;;;;24.65;9.55;;;8.70;95.80;;;;;;4968399;29;20027;-51
2023/11/24 02:03:31;;;;;;;26.55;11.10;;;8.70;95.90;;;;;;4969996;28;20031;-52
2023/11/24 02:05:56;;;;;;;27.40;9.63;;;8.70;95.90;;;;;;4968333;28;20027;-52
2023/11/24 02:08:22;;;;;;;23.48;10.20;;;8.70;95.80;;;;;;4968323;29;20023;-52
2023/11/24 02:10:47;;;;;;;26.95;10.68;;;8.70;95.80;;;;;;4968523;29;20062;-51
2023/11/24 02:13:13;;;;;;;20.75;9.18;;;8.70;95.80;;;;;;4984658;28;20031;-51
2023/11/24 02:15:39;;;;;;;23.48;8.95;;;8.70;95.80;;;;;;4969675;29;20023;-51
2023/11/24 02:18:05;;;;;;;17.50;9.20;;;8.70;95.80;;;;;;4969573;28;20046;-52
2023/11/24 02:20:33;;;;;;;27.90;9.88;;;8.70;95.80;;;;;;4969525;29;20023;-51
2023/11/24 02:22:59;;;;;;;24.40;9.98;;;8.70;95.80;;;;;;4952587;29;20027;-51
2023/11/24 02:25:25;;;;;;;20.50;10.13;;;8.70;95.80;;;;;;4952382;29;20038;-49
2023/11/24 02:27:50;;;;;;;24.27;9.65;;;8.70;95.80;;;;;;4967853;28;20035;-51
2023/11/24 02:30:16;;;;;;;22.65;9.38;;;8.70;95.80;;;;;;4967845;29;20042;-51
2023/11/24 02:32:41;;;;;;;21.52;9.10;;;8.70;95.80;;;;;;4969478;29;20084;-51
2023/11/24 02:35:09;;;;;;;19.77;9.13;;;8.70;95.70;;;;;;4969283;29;20042;-51
2023/11/24 02:37:35;;;;;;;23.17;9.70;;;8.70;95.70;;;;;;4983516;28;20039;-51
2023/11/24 02:40:01;;;;;;;30.35;10.15;;;8.70;95.70;;;;;;4969043;29;20034;-51
2023/11/24 02:42:26;;;;;;;27.27;10.35;;;8.70;95.70;;;;;;4967977;29;20031;-51
2023/11/24 02:44:52;;;;;;;24.15;9.07;;;8.70;95.70;;;;;;4947635;29;20048;-51
2023/11/24 02:47:17;;;;;;;24.67;8.98;;;8.70;95.70;;;;;;4948681;29;20035;-51
2023/11/24 02:49:43;;;;;;;17.77;8.18;;;8.70;95.70;;;;;;4949984;29;20388;-51
2023/11/24 02:52:09;;;;;;;21.42;8.57;;;8.70;95.70;;;;;;4948562;29;20059;-52
2023/11/24 02:54:35;;;;;;;24.13;9.48;;;8.70;95.70;;;;;;4973305;28;20391;-52
2023/11/24 02:57:01;;;;;;;18.27;8.98;;;8.70;95.60;;;;;;4983467;28;20098;-51
2023/11/24 02:59:26;;;;;;;15.98;8.73;;;8.70;95.60;;;;;;4983748;28;20035;-52
2023/11/24 03:01:52;;;;;;;15.27;8.23;;;8.70;95.60;;;;;;4968747;28;20024;-51
2023/11/24 03:04:18;;;;;;;19.92;8.93;;;8.70;95.60;;;;;;4968489;28;20058;-51
2023/11/24 03:06:44;;;;;;;15.50;7.57;;;8.70;95.70;;;;;;4983594;28;20031;-52
2023/11/24 03:09:09;;;;;;;15.75;8.55;;;8.70;95.70;;;;;;4983747;28;20034;-52
2023/11/24 03:11:38;;;;;;;15.07;8.23;;;8.70;95.70;;;;;;4983178;28;20031;-52
2023/11/24 03:14:04;;;;;;;15.30;7.55;;;8.70;95.70;;;;;;4949357;29;20140;-52
2023/11/24 03:16:32;;;;;;;14.73;8.00;;;8.70;95.70;;;;;;4947968;29;20059;-52
2023/11/24 03:18:58;;;;;;;16.23;8.38;;;8.70;95.70;;;;;;4964194;29;20095;-52
2023/11/24 03:21:24;;;;;;;19.95;8.75;;;8.70;95.70;;;;;;4969462;28;20020;-52
2023/11/24 03:23:49;;;;;;;17.52;8.55;;;8.70;95.70;;;;;;4967298;29;20108;-51
2023/11/24 03:26:15;;;;;;;17.42;8.73;;;8.80;95.70;;;;;;4968200;29;20027;-52
2023/11/24 03:28:40;;;;;;;19.23;8.88;;;8.70;95.70;;;;;;4951131;29;20035;-51
2023/11/24 03:31:06;;;;;;;21.08;9.15;;;8.70;95.70;;;;;;4968157;29;20035;-51
2023/11/24 03:33:33;;;;;;;15.68;8.02;;;8.80;95.90;;;;;;4968496;29;20464;-51
2023/11/24 03:35:58;;;;;;;20.77;9.30;;;8.80;95.70;;;;;;4967081;29;20051;-52
2023/11/24 03:38:24;;;;;;;18.80;8.52;;;8.80;95.60;;;;;;4950799;29;20067;-52
2023/11/24 03:40:54;;;;;;;16.55;8.73;;;8.80;95.70;;;;;;4950630;29;20027;-51
2023/11/24 03:43:19;;;;;;;17.73;8.20;;;8.70;95.60;;;;;;4947670;29;20054;-51
2023/11/24 03:45:45;;;;;;;14.65;8.65;;;8.80;95.70;;;;;;4948828;29;20023;-52
2023/11/24 03:48:10;;;;;;;19.42;9.18;;;8.70;95.60;;;;;;4949897;29;20066;-52
2023/11/24 03:50:36;;;;;;;18.13;8.98;;;8.80;95.70;;;;;;4968103;28;20439;-51
2023/11/24 03:53:02;;;;;;;20.98;9.38;;;8.80;95.60;;;;;;4967964;28;20047;-52
2023/11/24 03:55:27;;;;;;;18.35;9.25;;;8.80;95.60;;;;;;4982842;28;20513;-51
2023/11/24 03:57:53;;;;;;;18.17;9.73;;;8.80;95.60;;;;;;4966447;29;20491;-52
2023/11/24 04:00:19;;;;;;;16.48;9.75;;;8.70;95.60;;;;;;4967987;29;20042;-49
2023/11/24 04:02:46;;;;;;;16.75;9.75;;;8.80;95.60;;;;;;4966848;28;20503;-52
2023/11/24 04:05:11;;;;;;;14.73;8.85;;;8.80;95.60;;;;;;4982601;28;20027;-52
2023/11/24 04:07:38;;;;;;;12.38;8.60;;;8.80;95.60;;;;;;4967955;29;20041;-52
2023/11/24 04:10:04;;;;;;;15.52;9.00;;;8.80;95.60;;;;;;4967916;28;20084;-52
2023/11/24 04:12:29;;;;;;;11.90;8.80;;;8.70;95.60;;;;;;4967903;28;20032;-51
2023/11/24 04:14:55;;;;;;;15.63;9.07;;;8.80;95.60;;;;;;4967708;29;20038;-52
2023/11/24 04:17:20;;;;;;;13.02;8.13;;;8.80;95.60;;;;;;4966579;29;20031;-51
2023/11/24 04:19:46;;;;;;;15.23;9.43;;;8.80;95.60;;;;;;4966690;28;20250;-52
2023/11/24 04:22:11;;;;;;;16.67;9.93;;;8.80;95.70;;;;;;4966552;29;20423;-51
2023/11/24 04:24:38;;;;;;;12.90;8.98;;;8.80;95.70;;;;;;4967925;29;20115;-51
2023/11/24 04:27:04;;;;;;;17.00;9.68;;;8.80;95.80;;;;;;4966347;29;20054;-51
2023/11/24 04:29:30;;;;;;;14.63;9.05;;;8.80;95.80;;;;;;4966485;29;20095;-52
2023/11/24 04:31:56;;;;;;;17.55;9.77;;;8.80;95.90;;;;;;4967367;29;20443;-51
2023/11/24 04:34:23;;;;;;;12.80;8.90;;;8.80;95.90;;;;;;4950444;29;20070;-51
2023/11/24 04:36:49;;;;;;;20.10;9.32;;;8.80;95.90;;;;;;4966243;28;20483;-52
2023/11/24 04:39:15;;;;;;;19.60;9.30;;;8.80;95.90;;;;;;4966568;28;20070;-51
2023/11/24 04:41:41;;;;;;;15.07;8.63;;;8.80;96.00;;;;;;4966484;28;20408;-52
2023/11/24 04:44:06;;;;;;;13.48;8.82;;;8.80;96.00;;;;;;4982604;28;20035;-51
2023/11/24 04:46:33;;;;;;;15.00;9.35;;;8.80;96.00;;;;;;4966369;29;20031;-51
2023/11/24 04:49:03;;;;;;;16.15;9.13;;;8.80;96.00;;;;;;4967810;28;20063;-51
2023/11/24 04:51:31;;;;;;;17.75;9.55;;;8.80;96.00;;;;;;4966896;28;20106;-52
2023/11/24 04:53:58;;;;;;;11.77;8.43;;;8.80;96.00;;;;;;4970466;29;20039;-52
2023/11/24 04:56:27;;;;;;;12.75;8.20;;;8.80;95.90;;;;;;4970263;29;20031;-51
2023/11/24 04:58:53;;;;;;;13.68;8.32;;;8.80;95.90;;;;;;4986037;28;20040;-51
2023/11/24 05:01:19;;;;;;;17.05;7.90;;;8.80;95.90;;;;;;4969838;29;20027;-52
2023/11/24 05:03:44;;;;;;;16.80;8.90;;;8.80;96.00;;;;;;4969738;29;20177;-51
2023/11/24 05:06:10;;;;;;;14.80;8.60;;;8.90;96.00;;;;;;4970922;29;20559;-51
2023/11/24 05:08:39;;;;;;;14.88;8.32;;;8.80;96.00;;;;;;4969574;29;20050;-52
2023/11/24 05:11:05;;;;;;;16.92;7.95;;;8.90;96.00;;;;;;4969626;29;20057;-51
2023/11/24 05:13:31;;;;;;;13.90;7.45;;;8.90;96.00;;;;;;4969552;29;20024;-51
2023/11/24 05:15:59;;;;;;;16.33;8.25;;;8.90;96.00;;;;;;4970683;29;20031;-51
2023/11/24 05:18:25;;;;;;;12.52;7.95;;;8.80;95.90;;;;;;4969464;28;20050;-51
2023/11/24 05:20:51;;;;;;;16.33;8.13;;;8.90;95.90;;;;;;4970663;28;20034;-51
2023/11/24 05:23:16;;;;;;;15.82;7.90;;;8.80;95.90;;;;;;4969550;29;20107;-52
2023/11/24 05:25:42;;;;;;;12.43;8.25;;;8.90;95.90;;;;;;4969663;29;20039;-51
2023/11/24 05:28:08;;;;;;;11.60;7.60;;;8.90;96.00;;;;;;4969333;28;20383;-51
2023/11/24 05:30:34;;;;;;;12.30;7.97;;;8.80;95.90;;;;;;4969092;29;20038;-51
2023/11/24 05:33:01;;;;;;;14.95;7.78;;;8.90;96.00;;;;;;4970386;29;20054;-51
2023/11/24 05:35:26;;;;;;;20.05;7.43;;;8.90;96.00;;;;;;4953248;29;20035;-51
2023/11/24 05:37:52;;;;;;;16.27;7.90;;;8.90;96.00;;;;;;4968849;29;20042;-51
2023/11/24 05:40:18;;;;;;;12.50;7.78;;;8.90;95.90;;;;;;4969293;29;20122;-52
2023/11/24 05:42:44;;;;;;;19.73;7.97;;;8.90;95.90;;;;;;4969140;29;20039;-51
2023/11/24 05:45:09;;;;;;;28.92;8.82;;;8.90;96.00;;;;;;4969162;28;20121;-51
2023/11/24 05:47:36;;;;;;;26.33;8.77;;;8.90;95.90;;;;;;4970271;29;20023;-51
2023/11/24 05:50:05;;;;;;;28.42;8.85;;;8.90;95.90;;;;;;4968960;29;20060;-52
2023/11/24 05:52:34;;;;;;;28.70;8.70;;;8.90;95.90;;;;;;4969973;29;20059;-51
2023/11/24 05:55:06;;;;;;;33.60;9.23;;;8.90;95.80;;;;;;4984806;28;20063;-51
2023/11/24 05:57:31;;;;;;;116.68;16.23;;;8.90;95.90;;;;;;4970031;28;20035;-51
2023/11/24 05:59:57;;;;;;;125.78;19.48;;;8.90;95.90;;;;;;4968912;28;20043;-51
2023/11/24 06:02:23;;;;;;;104.93;16.02;;;8.90;96.00;;;;;;4952400;28;20030;-51
2023/11/24 06:04:49;;;;;;;57.38;13.18;;;8.90;96.00;;;;;;4967703;28;20035;-52
2023/11/24 06:07:17;;;;;;;54.22;11.55;;;8.90;96.00;;;;;;4952365;29;20035;-52
2023/11/24 06:09:43;;;;;;;74.43;11.80;;;8.90;96.00;;;;;;4968715;28;20039;-51
2023/11/24 06:12:09;;;;;;;48.33;11.13;;;8.90;96.00;;;;;;4952594;29;20023;-52
2023/11/24 06:14:35;;;;;;;47.28;11.32;;;8.90;95.90;;;;;;4969628;28;20039;-52
2023/11/24 06:17:02;;;;;;;55.42;11.75;;;8.90;95.90;;;;;;4968092;28;20032;-52
2023/11/24 06:19:28;;;;;;;49.97;11.35;;;8.90;95.90;;;;;;4952513;29;20051;-52
2023/11/24 06:21:53;;;;;;;49.17;10.95;;;9.00;95.90;;;;;;4968175;29;20039;-51
2023/11/24 06:24:19;;;;;;;38.88;9.77;;;8.90;95.90;;;;;;4968106;28;20125;-52
2023/11/24 06:26:45;;;;;;;43.38;11.05;;;9.00;95.90;;;;;;4968086;28;20053;-52
2023/11/24 06:29:10;;;;;;;49.90;9.65;;;9.00;95.90;;;;;;4952166;29;20063;-51
2023/11/24 06:31:36;;;;;;;40.35;10.13;;;8.90;95.90;;;;;;4968054;29;20065;-52
2023/11/24 06:34:02;;;;;;;38.92;11.02;;;9.00;95.90;;;;;;4968133;28;20032;-51
2023/11/24 06:36:27;;;;;;;55.60;11.95;;;9.00;96.00;;;;;;4967973;28;20047;-52
2023/11/24 06:38:53;;;;;;;62.78;11.48;;;8.90;95.90;;;;;;4952091;29;20035;-52
2023/11/24 06:41:19;;;;;;;36.45;9.13;;;9.00;96.00;;;;;;4969126;29;20024;-52
2023/11/24 06:43:44;;;;;;;43.67;9.88;;;8.90;96.00;;;;;;4968005;29;20122;-51
2023/11/24 06:46:11;;;;;;;36.70;9.45;;;9.00;96.00;;;;;;4968360;28;20032;-52
2023/11/24 06:48:38;;;;;;;37.40;10.77;;;9.00;96.10;;;;;;4967387;29;20028;-51
2023/11/24 06:51:04;;;;;;;41.63;11.15;;;8.90;96.10;;;;;;4983205;28;20046;-52
2023/11/24 06:53:30;;;;;;;31.77;8.98;;;8.90;96.20;;;;;;4983545;28;20035;-52
2023/11/24 06:55:56;;;;;;;40.75;9.75;;;8.90;96.20;;;;;;4968806;28;20042;-51
2023/11/24 06:58:22;;;;;;;38.95;10.07;;;9.00;96.30;;;;;;4968995;28;20039;-52
2023/11/24 07:00:50;;;;;;;28.50;8.95;;;9.00;96.30;;;;;;4983690;28;20035;-51
2023/11/24 07:03:15;;;;;;;32.15;8.82;;;9.00;96.60;;;;;;4983296;28;20023;-52
2023/11/24 07:05:41;;;;;;;28.92;9.18;;;8.90;96.40;;;;;;4967352;29;20042;-51
2023/11/24 07:08:07;;;;;;;39.65;10.50;;;8.90;96.40;;;;;;4983255;28;20031;-51
2023/11/24 07:10:33;;;;;;;33.60;9.80;;;8.90;96.50;;;;;;4968382;28;20046;-52
2023/11/24 07:12:59;;;;;;;34.33;8.98;;;8.90;96.50;;;;;;4967750;29;20031;-51
2023/11/24 07:15:24;;;;;;;27.40;8.65;;;8.90;96.60;;;;;;4965063;28;20035;-51
2023/11/24 07:17:50;;;;;;;34.75;8.43;;;8.90;96.60;;;;;;4964746;28;20023;-51
2023/11/24 07:20:16;;;;;;;24.42;8.63;;;8.90;96.60;;;;;;4973771;28;20028;-51
2023/11/24 07:22:42;;;;;;;32.83;9.27;;;8.90;96.60;;;;;;4975065;28;20028;-52
2023/11/24 07:25:08;;;;;;;28.55;8.82;;;8.90;96.70;;;;;;4983106;28;20023;-51
2023/11/24 07:27:34;;;;;;;43.85;9.52;;;8.90;96.80;;;;;;4966212;29;20059;-52
2023/11/24 07:30:00;;;;;;;29.33;8.02;;;8.90;96.80;;;;;;4967231;29;20053;-51
2023/11/24 07:32:28;;;;;;;25.40;8.80;;;8.90;96.80;;;;;;4965931;29;20027;-51
2023/11/24 07:34:54;;;;;;;39.13;8.57;;;9.00;96.90;;;;;;4967555;28;20039;-51
2023/11/24 07:37:20;;;;;;;44.05;10.23;;;9.00;96.90;;;;;;4962914;28;20038;-52
2023/11/24 07:39:45;;;;;;;58.35;10.27;;;9.00;96.90;;;;;;4964460;28;20031;-51
2023/11/24 07:42:11;;;;;;;41.05;9.05;;;9.00;97.00;;;;;;4967487;28;20023;-51
2023/11/24 07:44:37;;;;;;;33.53;9.43;;;9.00;97.10;;;;;;4962625;28;20490;-52
2023/11/24 07:47:04;;;;;;;41.88;8.88;;;9.00;97.00;;;;;;4981021;28;20027;-51
2023/11/24 07:49:30;;;;;;;37.90;8.45;;;9.00;97.00;;;;;;4979580;28;20131;-51
2023/11/24 07:51:55;;;;;;;42.08;8.60;;;9.00;97.00;;;;;;4966948;28;20027;-51
2023/11/24 07:54:21;;;;;;;37.25;9.55;;;9.00;97.10;;;;;;4965703;29;20090;-51
2023/11/24 07:56:46;;;;;;;40.35;8.68;;;9.00;97.20;;;;;;4967164;28;20074;-51
2023/11/24 07:59:12;;;;;;;38.92;8.65;;;9.10;97.30;;;;;;4978891;28;20050;-51
2023/11/24 08:01:41;;;;;;;30.73;8.43;;;9.00;97.30;;;;;;4967342;28;20078;-51
2023/11/24 08:04:07;;;;;;;35.83;8.02;;;9.10;97.30;;;;;;4966545;29;20490;-51
2023/11/24 08:06:32;;;;;;;30.67;7.28;;;9.10;97.40;;;;;;4960299;28;20087;-51
2023/11/24 08:09:00;;;;;;;32.35;8.20;;;9.10;97.50;;;;;;4985568;28;20073;-51
2023/11/24 08:11:26;;;;;;;32.58;8.40;;;9.10;97.70;;;;;;4958864;28;20039;-51
2023/11/24 08:13:53;;;;;;;35.85;7.55;;;9.10;97.90;;;;;;4957711;28;20035;-51
2023/11/24 08:16:19;;;;;;;49.13;9.60;;;9.00;98.00;;;;;;4984630;28;20026;-51
2023/11/24 08:18:45;;;;;;;43.35;9.55;;;9.10;98.20;;;;;;4942891;29;20444;-51
2023/11/24 08:21:11;;;;;;;53.58;8.77;;;9.10;98.30;;;;;;4974795;28;20037;-50
2023/11/24 08:23:36;;;;;;;116.80;12.98;;;9.10;98.30;;;;;;4948535;28;20042;-51
2023/11/24 08:26:05;;;;;;;155.00;16.88;;;9.10;98.50;;;;;;4954516;28;20023;-51
2023/11/24 08:28:31;;;;;;;115.03;15.02;;;9.10;98.70;;;;;;4966880;28;20020;-51
2023/11/24 08:30:56;;;;;;;64.28;9.82;;;9.10;98.90;;;;;;4973496;28;20035;-51
2023/11/24 08:33:22;;;;;;;60.17;10.18;;;9.20;99.00;;;;;;4966776;28;20027;-51
2023/11/24 08:35:48;;;;;;;61.33;9.20;;;9.20;98.90;;;;;;4965656;28;20024;-51
2023/11/24 08:38:13;;;;;;;111.40;12.23;;;9.20;99.00;;;;;;4971620;28;20088;-51
2023/11/24 08:40:39;;;;;;;60.20;10.43;;;9.20;99.10;;;;;;4966619;28;20470;-51
2023/11/24 08:43:05;;;;;;;99.93;13.50;;;9.20;99.20;;;;;;4981868;28;20050;-51
2023/11/24 08:45:33;;;;;;;72.45;13.63;;;9.20;99.30;;;;;;4980777;28;20058;-51
2023/11/24 08:47:58;;;;;;;95.45;13.35;;;9.20;99.40;;;;;;4983354;28;20038;-51
2023/11/24 08:50:24;;;;;;;64.10;9.75;;;9.20;99.50;;;;;;4982767;28;20047;-51
2023/11/24 08:52:52;;;;;;;69.70;10.35;;;9.30;99.50;;;;;;4959657;28;20027;-51
2023/11/24 08:55:17;;;;;;;89.38;12.10;;;9.30;99.60;;;;;;4966180;28;20062;-51
2023/11/24 08:57:44;;;;;;;119.72;14.40;;;9.30;99.60;;;;;;4966208;28;20035;-51
2023/11/24 09:00:11;;;;;;;88.90;12.07;;;9.40;99.70;;;;;;4968680;28;20035;-51
2023/11/24 09:02:37;;;;;;;100.57;13.32;;;9.40;99.90;;;;;;4980821;28;20032;-51
2023/11/24 09:05:04;;;;;;;116.10;14.43;;;9.40;99.90;;;;;;4984501;28;20058;-51
2023/11/24 09:07:30;;;;;;;125.97;15.40;;;9.40;99.90;;;;;;4988643;28;20027;-51
2023/11/24 09:09:56;;;;;;;139.38;15.55;;;9.50;99.90;;;;;;4963279;28;20023;-51
2023/11/24 09:12:21;;;;;;;123.97;15.68;;;9.50;99.90;;;;;;4963373;28;20074;-51
2023/11/24 09:14:47;;;;;;;123.05;14.93;;;9.50;99.90;;;;;;4966195;28;20031;-51
2023/11/24 09:17:12;;;;;;;143.60;18.38;;;9.50;99.90;;;;;;4981156;28;20042;-51
2023/11/24 09:19:38;;;;;;;135.63;17.50;;;9.50;99.90;;;;;;4954023;28;20041;-51
2023/11/24 09:22:06;;;;;;;111.07;13.82;;;9.60;99.90;;;;;;4976345;28;20028;-51
2023/11/24 09:24:32;;;;;;;101.22;14.45;;;9.60;99.90;;;;;;4979553;28;20059;-51
2023/11/24 09:27:01;;;;;;;90.88;12.73;;;9.60;99.90;;;;;;4962364;28;20033;-51
2023/11/24 09:29:27;;;;;;;98.60;12.30;;;9.60;99.90;;;;;;4980130;28;20046;-51
2023/11/24 09:31:53;;;;;;;123.13;14.02;;;9.70;99.90;;;;;;4963844;28;20039;-51
2023/11/24 09:34:19;;;;;;;89.68;11.98;;;9.70;99.90;;;;;;4978333;28;20039;-51
2023/11/24 09:36:46;;;;;;;96.95;13.25;;;9.70;99.90;;;;;;4972116;28;20042;-51
2023/11/24 09:39:17;;;;;;;111.93;14.80;;;9.70;99.90;;;;;;4963490;28;20068;-51
2023/11/24 09:41:45;;;;;;;118.57;15.05;;;9.80;99.90;;;;;;4976440;28;20031;-52
2023/11/24 09:44:10;;;;;;;99.68;12.02;;;9.80;99.90;;;;;;4967460;28;20055;-51
2023/11/24 09:46:40;;;;;;;111.03;14.00;;;9.80;99.90;;;;;;4982463;28;20035;-51
2023/11/24 09:49:07;;;;;;;112.13;12.38;;;9.80;99.90;;;;;;4981367;28;20070;-51
2023/11/24 09:51:34;;;;;;;141.05;15.50;;;9.80;99.90;;;;;;4982135;28;20043;-51
2023/11/24 09:54:02;;;;;;;124.88;13.55;;;9.90;99.90;;;;;;4981935;28;20183;-51
2023/11/24 09:56:27;;;;;;;109.07;12.50;;;9.90;99.90;;;;;;4950909;29;20079;-51
2023/11/24 09:58:53;;;;;;;110.25;13.00;;;9.90;99.90;;;;;;4957725;28;20114;-51
2023/11/24 10:01:19;;;;;;;133.07;13.63;;;9.90;99.90;;;;;;4964953;28;20038;-51
2023/11/24 10:03:55;;;;;;;122.82;13.55;;;10.00;99.90;;;;;;4960874;28;20043;-51
2023/11/24 10:06:21;;;;;;;121.10;14.63;;;10.00;99.90;;;;;;4981955;28;20090;-51
2023/11/24 10:08:46;;;;;;;152.38;16.55;;;10.00;99.90;;;;;;4964662;28;20027;-51
2023/11/24 10:11:13;;;;;;;129.60;15.15;;;10.10;99.90;;;;;;4981380;28;20026;-51
2023/11/24 10:13:43;;;;;;;137.63;15.68;;;10.10;99.90;;;;;;4966305;28;20039;-51
2023/11/24 10:16:10;;;;;;;117.68;14.20;;;10.10;99.90;;;;;;4965953;29;20082;-51
2023/11/24 10:18:36;;;;;;;147.93;16.80;;;10.20;99.90;;;;;;4972748;28;20027;-51
2023/11/24 10:21:02;;;;;;;146.65;14.75;;;10.20;99.90;;;;;;4970818;28;20263;-51
2023/11/24 10:23:31;;;;;;;167.43;17.25;;;10.20;99.90;;;;;;4979073;28;20049;-51
2023/11/24 10:25:57;;;;;;;171.20;17.15;;;10.20;99.90;;;;;;4947449;29;20059;-51
2023/11/24 10:28:26;;;;;;;134.65;16.38;;;10.20;99.90;;;;;;4980580;28;20027;-51
2023/11/24 10:30:55;;;;;;;108.57;13.63;;;10.20;99.90;;;;;;4964475;28;20772;-51
2023/11/24 10:33:24;;;;;;;118.25;16.25;;;10.30;99.90;;;;;;4963111;28;20031;-51
2023/11/24 10:35:50;;;;;;;132.07;14.57;;;10.30;99.90;;;;;;4964087;29;20031;-51
2023/11/24 10:38:20;;;;;;;107.93;13.82;;;10.30;99.90;;;;;;4946740;28;20114;-51
2023/11/24 10:40:52;;;;;;;110.68;13.23;;;10.30;99.90;;;;;;4962971;29;20035;-52
2023/11/24 10:43:19;;;;;;;115.70;12.70;;;10.40;99.90;;;;;;4963783;28;20027;-51
2023/11/24 10:45:48;;;;;;;112.25;12.77;;;10.40;99.90;;;;;;4980270;28;20087;-51
2023/11/24 10:48:29;;;;;;;102.40;13.73;;;10.40;99.90;;;;;;4964326;28;20126;-52
2023/11/24 10:51:21;;;;;;;125.00;12.10;;;10.30;99.90;;;;;;4979813;28;20050;-51
2023/11/24 10:53:52;;;;;;;117.40;12.35;;;10.40;99.90;;;;;;4965041;29;20035;-51
2023/11/24 10:56:18;;;;;;;109.80;13.70;;;10.40;99.90;;;;;;4979590;28;20031;-51
2023/11/24 10:58:45;;;;;;;98.45;11.05;;;10.40;99.90;;;;;;4978425;28;20037;-51
2023/11/24 11:01:14;;;;;;;121.25;12.55;;;10.40;99.90;;;;;;4979527;28;20023;-52
2023/11/24 11:03:39;;;;;;;81.63;11.23;;;10.50;99.90;;;;;;4963917;28;20039;-51
2023/11/24 11:06:14;;;;;;;101.00;13.13;;;10.40;99.90;;;;;;4965300;29;20074;-51
2023/11/24 11:08:43;;;;;;;100.07;14.77;;;10.50;99.90;;;;;;4979559;28;20031;-51
2023/11/24 11:11:44;;;;;;;88.05;11.50;;;10.50;99.90;;;;;;4979722;28;20027;-52
2023/11/24 11:14:13;;;;;;;102.93;11.52;;;10.50;99.90;;;;;;4967045;29;20038;-51
2023/11/24 11:16:39;;;;;;;81.30;10.98;;;10.50;99.90;;;;;;4984827;28;20042;-51
2023/11/24 11:19:30;;;;;;;78.28;9.90;;;10.50;99.90;;;;;;4956269;28;20438;-51
2023/11/24 11:21:56;;;;;;;85.18;10.32;;;10.50;99.90;;;;;;4966735;29;20158;-51
2023/11/24 11:24:23;;;;;;;95.85;12.20;;;10.60;99.90;;;;;;4967923;28;20036;-51
2023/11/24 11:26:50;;;;;;;73.75;8.60;;;10.60;99.90;;;;;;5001002;28;20530;-51
2023/11/24 11:29:20;;;;;;;69.50;7.97;;;10.60;99.90;;;;;;4971277;28;20031;-51
2023/11/24 11:31:46;;;;;;;74.57;10.48;;;10.60;99.90;;;;;;4965401;29;20099;-51
2023/11/24 11:34:16;;;;;;;87.53;9.57;;;10.60;99.90;;;;;;4981975;28;20134;-50
2023/11/24 11:37:05;;;;;;;77.65;9.00;;;10.60;99.90;;;;;;4966059;28;20055;-51
2023/11/24 11:39:57;;;;;;;77.53;9.65;;;10.60;99.90;;;;;;4977095;28;20036;-51
2023/11/24 11:42:52;;;;;;;71.35;9.27;;;10.60;99.90;;;;;;4967264;28;20023;-51
2023/11/24 11:45:17;;;;;;;83.75;8.23;;;10.60;99.90;;;;;;4974412;28;20031;-51
2023/11/24 11:47:50;;;;;;;50.42;6.25;;;10.60;99.90;;;;;;4979137;28;20449;-51
2023/11/24 11:50:21;;;;;;;89.35;9.23;;;10.60;99.90;;;;;;4979126;28;20400;-50
2023/11/24 11:52:48;;;;;;;64.18;7.60;;;10.60;99.90;;;;;;4980834;28;20039;-51
2023/11/24 11:55:21;;;;;;;56.05;6.72;;;10.60;99.90;;;;;;4978467;28;20079;-50
2023/11/24 11:58:00;;;;;;;74.03;8.27;;;10.60;99.90;;;;;;4980879;28;20031;-51
2023/11/24 12:00:29;;;;;;;83.30;8.90;;;10.60;99.90;;;;;;4949609;29;20031;-51
2023/11/24 12:02:56;;;;;;;66.38;8.85;;;10.70;99.90;;;;;;4978847;28;20039;-51
2023/11/24 12:05:25;;;;;;;90.93;9.85;;;10.70;99.90;;;;;;4978658;28;20115;-51
2023/11/24 12:07:52;;;;;;;74.03;7.97;;;10.70;99.90;;;;;;4962983;28;20049;-51
2023/11/24 12:10:18;;;;;;;84.03;7.97;;;10.70;99.90;;;;;;4964829;28;20055;-50
2023/11/24 12:12:45;;;;;;;69.13;8.43;;;10.70;99.90;;;;;;4979758;28;20042;-50
2023/11/24 12:15:11;;;;;;;73.50;8.68;;;10.70;99.90;;;;;;4966686;29;20045;-51
2023/11/24 12:17:39;;;;;;;138.50;12.23;;;10.70;99.90;;;;;;4966667;28;20070;-51
2023/11/24 12:20:10;;;;;;;115.97;9.40;;;10.70;99.90;;;;;;4965120;29;20039;-50
2023/11/24 12:22:37;;;;;;;64.20;6.95;;;10.70;99.90;;;;;;4981234;28;20133;-50
2023/11/24 12:25:04;;;;;;;51.15;6.75;;;10.80;99.90;;;;;;4969828;28;20047;-51
2023/11/24 12:27:30;;;;;;;57.88;7.07;;;10.70;99.90;;;;;;4963395;28;20031;-51
2023/11/24 12:29:55;;;;;;;88.78;9.15;;;10.70;99.90;;;;;;4947085;29;20051;-50
2023/11/24 12:32:23;;;;;;;82.22;10.70;;;10.70;99.90;;;;;;4963719;28;20023;-50
2023/11/24 12:34:50;;;;;;;59.88;8.52;;;10.70;99.90;;;;;;4964224;29;20107;-50
2023/11/24 12:37:16;;;;;;;46.60;7.47;;;10.70;99.90;;;;;;4978795;28;20038;-50